Time;durP1;ratioP1;P1;durP2;ratioP2;P2;SDS_P1;SDS_P2;PMS_P1;PMS_P2;Temp;Humidity;BMP_temperature;BMP_pressure;BME280_temperature;BME280_humidity;BME280_pressure;Samples;Min_cycle;Max_cycle;Signal;HPM_P1;HPM_P2
2023/07/02 00:02:17;;;;;;;62.30;55.53;;;;;;;20.59;62.67;100305.81;4991339;28;20414;-76
2023/07/02 00:04:43;;;;;;;112.50;82.72;;;;;;;20.44;63.00;100301.81;4992820;28;20445;-76
2023/07/02 00:07:08;;;;;;;181.55;107.82;;;;;;;20.51;62.80;100298.97;4991124;28;20401;-76
2023/07/02 00:09:34;;;;;;;110.28;81.20;;;;;;;20.49;62.65;100294.88;4992718;28;20447;-76
2023/07/02 00:11:59;;;;;;;54.53;45.33;;;;;;;20.55;62.59;100291.22;4990717;28;20729;-75
2023/07/02 00:14:25;;;;;;;51.40;45.80;;;;;;;20.47;62.33;100283.53;4975277;28;20447;-76
2023/07/02 00:16:50;;;;;;;38.38;34.28;;;;;;;20.34;62.76;100282.81;4991173;28;20420;-76
2023/07/02 00:19:16;;;;;;;37.13;33.13;;;;;;;20.41;62.41;100280.75;4973960;28;20467;-75
2023/07/02 00:21:42;;;;;;;35.25;31.40;;;;;;;20.43;62.15;100269.75;4992144;28;20786;-76
2023/07/02 00:24:09;;;;;;;29.48;25.42;;;;;;;20.43;61.91;100272.44;4992329;28;20385;-76
2023/07/02 00:26:37;;;;;;;30.73;25.65;;;;;;;20.52;61.89;100276.34;4992646;28;20408;-76
2023/07/02 00:29:03;;;;;;;76.93;61.55;;;;;;;20.42;62.20;100276.22;4991601;28;20378;-76
2023/07/02 00:31:29;;;;;;;55.42;49.55;;;;;;;20.39;62.41;100279.38;4991511;28;20404;-76
2023/07/02 00:33:54;;;;;;;94.57;72.80;;;;;;;20.51;61.97;100281.97;4992245;28;20381;-76
2023/07/02 00:36:20;;;;;;;139.30;92.82;;;;;;;20.43;61.99;100275.94;4991818;28;20886;-76
2023/07/02 00:38:48;;;;;;;116.30;84.13;;;;;;;20.42;61.96;100271.63;4992080;28;20386;-76
2023/07/02 00:41:14;;;;;;;78.22;62.85;;;;;;;20.44;61.88;100277.59;4991157;28;20409;-76
2023/07/02 00:43:43;;;;;;;61.78;55.20;;;;;;;20.48;61.76;100274.41;4992045;28;20373;-75
2023/07/02 00:46:19;;;;;;;60.15;53.63;;;;;;;20.48;61.53;100280.59;4991074;28;20408;-76
2023/07/02 00:48:50;;;;;;;53.67;47.40;;;;;;;20.56;61.32;100285.59;4992108;28;20528;-76
2023/07/02 00:51:19;;;;;;;56.13;50.10;;;;;;;20.61;61.29;100282.97;4989936;28;20389;-76
2023/07/02 00:53:46;;;;;;;54.67;49.07;;;;;;;20.55;61.52;100277.75;4991043;28;20393;-76
2023/07/02 00:56:12;;;;;;;50.88;45.55;;;;;;;20.59;61.45;100282.38;4991757;28;20386;-77
2023/07/02 00:58:40;;;;;;;38.22;34.38;;;;;;;20.43;61.70;100273.25;4991867;28;20385;-76
2023/07/02 01:01:06;;;;;;;41.15;35.65;;;;;;;20.40;61.84;100270.22;4993707;28;20782;-76
2023/07/02 01:03:32;;;;;;;41.53;37.15;;;;;;;20.50;61.57;100275.78;4992671;28;20533;-76
2023/07/02 01:06:01;;;;;;;35.25;31.42;;;;;;;20.44;61.54;100282.16;4991398;28;20468;-76
2023/07/02 01:08:26;;;;;;;35.88;31.65;;;;;;;20.39;61.57;100274.00;4991073;28;20408;-76
2023/07/02 01:10:52;;;;;;;40.97;34.00;;;;;;;20.40;61.56;100279.16;4990661;28;20441;-76
2023/07/02 01:13:23;;;;;;;39.55;34.00;;;;;;;20.35;61.47;100271.00;4991471;28;20408;-76
2023/07/02 01:15:49;;;;;;;39.50;35.33;;;;;;;20.34;61.61;100277.41;4990761;28;20408;-76
2023/07/02 01:18:15;;;;;;;44.27;37.37;;;;;;;20.41;61.41;100283.44;4990216;28;20417;-75
2023/07/02 01:20:42;;;;;;;41.60;37.30;;;;;;;20.39;61.39;100274.81;4991125;28;20378;-76
2023/07/02 01:23:09;;;;;;;43.00;38.33;;;;;;;20.43;61.42;100284.03;4972577;28;20905;-75
2023/07/02 01:25:36;;;;;;;40.90;36.63;;;;;;;20.38;61.68;100289.34;4974160;28;20381;-76
2023/07/02 01:28:02;;;;;;;39.03;34.70;;;;;;;20.33;61.61;100278.50;4990183;28;21069;-76
2023/07/02 01:30:28;;;;;;;44.67;40.15;;;;;;;20.41;61.61;100286.16;4990861;28;20385;-76
2023/07/02 01:32:53;;;;;;;40.07;35.90;;;;;;;20.44;61.39;100285.66;4990823;28;20719;-76
2023/07/02 01:35:19;;;;;;;37.33;29.95;;;;;;;20.36;61.69;100279.88;4990702;28;20978;-76
2023/07/02 01:37:44;;;;;;;35.57;31.00;;;;;;;20.30;61.93;100270.09;4991077;28;20754;-76
2023/07/02 01:40:10;;;;;;;32.65;27.33;;;;;;;20.32;61.69;100273.34;4991210;28;20874;-75
2023/07/02 01:42:36;;;;;;;32.20;25.37;;;;;;;20.32;61.68;100276.03;4990276;28;20440;-76
2023/07/02 01:45:02;;;;;;;40.67;36.20;;;;;;;20.41;61.37;100274.56;4989602;28;20735;-76
2023/07/02 01:47:27;;;;;;;42.85;38.38;;;;;;;20.58;60.67;100277.22;4972916;28;20458;-75
2023/07/02 01:49:53;;;;;;;42.03;37.20;;;;;;;20.67;60.35;100280.34;4991129;28;20385;-76
2023/07/02 01:52:18;;;;;;;42.87;38.30;;;;;;;20.73;60.20;100276.69;4991194;28;20378;-76
2023/07/02 01:54:45;;;;;;;50.45;45.10;;;;;;;20.69;60.42;100281.75;4988624;28;20491;-76
2023/07/02 01:57:10;;;;;;;83.57;67.67;;;;;;;20.55;61.01;100264.28;4990906;28;20436;-76
2023/07/02 01:59:36;;;;;;;66.90;56.27;;;;;;;20.50;61.29;100258.81;4990230;28;20792;-76
2023/07/02 02:02:02;;;;;;;61.20;54.50;;;;;;;20.52;61.38;100254.81;4990843;28;20409;-76
2023/07/02 02:04:27;;;;;;;62.17;55.30;;;;;;;20.58;61.26;100250.31;4992686;28;20730;-76
2023/07/02 02:06:53;;;;;;;51.03;45.80;;;;;;;20.74;60.88;100259.44;4994951;28;20417;-76
2023/07/02 02:09:19;;;;;;;37.90;33.97;;;;;;;20.77;60.93;100256.25;4994074;28;20428;-76
2023/07/02 02:11:48;;;;;;;41.60;35.35;;;;;;;20.80;60.73;100253.88;4994777;28;20381;-76
2023/07/02 02:14:14;;;;;;;47.10;39.65;;;;;;;20.79;60.95;100254.94;4993073;28;20408;-76
2023/07/02 02:16:39;;;;;;;47.33;42.03;;;;;;;20.79;61.01;100243.34;4994544;28;20488;-75
2023/07/02 02:19:05;;;;;;;38.80;34.40;;;;;;;20.81;61.32;100252.84;4993843;28;20475;-76
2023/07/02 02:21:31;;;;;;;35.00;30.70;;;;;;;20.79;61.52;100243.34;4994662;28;20401;-76
2023/07/02 02:23:56;;;;;;;27.50;15.60;;;;;;;20.83;61.33;100239.09;4994711;28;20938;-76
2023/07/02 02:26:22;;;;;;;24.67;12.75;;;;;;;20.90;61.76;100239.72;4990290;28;21267;-76
2023/07/02 02:28:48;;;;;;;27.10;10.53;;;;;;;20.89;61.77;100240.81;4972339;28;20756;-76
2023/07/02 02:31:15;;;;;;;27.45;8.98;;;;;;;20.94;61.71;100234.66;4970691;28;20469;-76
2023/07/02 02:33:40;;;;;;;25.25;8.65;;;;;;;20.96;61.52;100227.97;4973824;28;20397;-75
2023/07/02 02:36:06;;;;;;;22.23;8.13;;;;;;;20.96;61.45;100225.25;4975459;28;20768;-75
2023/07/02 02:38:31;;;;;;;22.13;8.48;;;;;;;20.99;61.76;100240.09;4974925;28;21922;-77
2023/07/02 02:40:57;;;;;;;20.10;6.77;;;;;;;20.96;61.59;100219.88;4976776;28;20880;-77
2023/07/02 02:43:22;;;;;;;21.65;5.63;;;;;;;20.88;61.59;100228.38;4972623;28;20399;-77
2023/07/02 02:45:48;;;;;;;21.07;5.60;;;;;;;20.68;61.90;100225.44;4972152;28;20424;-77
2023/07/02 02:48:13;;;;;;;17.37;5.27;;;;;;;20.56;62.13;100220.97;4979106;28;20434;-77
2023/07/02 02:50:42;;;;;;;23.00;5.75;;;;;;;20.52;62.26;100224.38;4987842;28;20429;-76
2023/07/02 02:53:08;;;;;;;25.30;5.30;;;;;;;20.53;62.13;100228.72;4990669;28;20401;-77
2023/07/02 02:55:35;;;;;;;23.92;5.30;;;;;;;20.61;62.01;100225.59;4990821;28;20389;-77
2023/07/02 02:58:00;;;;;;;20.42;4.65;;;;;;;20.65;61.92;100231.31;4991741;28;20403;-77
2023/07/02 03:00:26;;;;;;;25.30;5.70;;;;;;;20.60;62.95;100232.84;4992620;28;20389;-77
2023/07/02 03:02:51;;;;;;;22.33;5.60;;;;;;;20.62;63.03;100227.25;4992847;28;20495;-76
2023/07/02 03:05:17;;;;;;;20.87;5.80;;;;;;;20.68;62.66;100234.31;4993701;28;20394;-77
2023/07/02 03:07:42;;;;;;;22.90;16.13;;;;;;;20.72;62.30;100240.84;4994455;28;20370;-76
2023/07/02 03:10:08;;;;;;;22.67;10.52;;;;;;;20.64;62.13;100238.59;4993714;28;20432;-76
2023/07/02 03:12:34;;;;;;;20.40;11.18;;;;;;;20.65;62.07;100242.09;5009137;28;20877;-77
2023/07/02 03:14:59;;;;;;;17.90;6.60;;;;;;;20.69;62.09;100253.97;4993301;28;20370;-76
2023/07/02 03:17:25;;;;;;;19.35;4.78;;;;;;;20.68;62.03;100247.78;4994132;28;20497;-76
2023/07/02 03:19:51;;;;;;;16.60;4.67;;;;;;;20.62;62.15;100238.84;4994143;28;20441;-77
2023/07/02 03:22:17;;;;;;;16.67;4.57;;;;;;;20.65;62.24;100245.59;4994179;28;20414;-76
2023/07/02 03:24:42;;;;;;;16.75;6.43;;;;;;;20.77;61.88;100249.00;4993928;28;20421;-76
2023/07/02 03:27:07;;;;;;;31.90;14.43;;;;;;;20.88;61.62;100259.91;4994030;28;20855;-76
2023/07/02 03:29:38;;;;;;;20.13;12.37;;;;;;;20.96;61.54;100251.41;4994046;28;20417;-76
2023/07/02 03:32:04;;;;;;;28.98;13.65;;;;;;;20.96;61.48;100252.22;4991363;28;20393;-77
2023/07/02 03:34:29;;;;;;;26.08;18.48;;;;;;;20.97;61.45;100253.03;4993892;28;20528;-77
2023/07/02 03:36:55;;;;;;;24.87;14.37;;;;;;;21.05;61.22;100247.22;4991482;28;20425;-77
2023/07/02 03:39:20;;;;;;;25.23;15.47;;;;;;;21.12;61.08;100247.84;4993740;28;20378;-76
2023/07/02 03:41:46;;;;;;;22.75;10.38;;;;;;;21.15;61.00;100251.88;4993648;28;20378;-76
2023/07/02 03:44:11;;;;;;;20.23;9.33;;;;;;;21.19;60.84;100263.78;4991317;28;20878;-76
2023/07/02 03:46:37;;;;;;;20.83;6.93;;;;;;;21.23;60.87;100266.78;4993403;28;20865;-76
2023/07/02 03:49:03;;;;;;;15.90;6.32;;;;;;;21.18;60.81;100265.69;4993439;28;20377;-76
2023/07/02 03:51:30;;;;;;;16.25;6.32;;;;;;;21.19;60.77;100264.63;4991807;28;20481;-76
2023/07/02 03:53:55;;;;;;;19.23;7.30;;;;;;;21.19;60.67;100256.53;4991602;28;20417;-76
2023/07/02 03:56:21;;;;;;;18.30;4.82;;;;;;;21.20;60.98;100260.03;4972842;28;20858;-75
2023/07/02 03:58:46;;;;;;;19.87;6.70;;;;;;;21.20;61.12;100258.16;4991319;28;20393;-76
2023/07/02 04:01:12;;;;;;;23.90;6.93;;;;;;;21.26;61.05;100250.13;4987439;28;20397;-76
2023/07/02 04:03:38;;;;;;;22.27;9.50;;;;;;;21.33;60.77;100262.34;4988563;28;20751;-76
2023/07/02 04:06:05;;;;;;;22.75;12.07;;;;;;;21.35;60.92;100257.50;4988959;28;20404;-76
2023/07/02 04:08:31;;;;;;;25.60;13.25;;;;;;;21.31;60.97;100250.19;4989900;28;20393;-75
2023/07/02 04:10:57;;;;;;;17.98;9.40;;;;;;;21.30;60.74;100257.47;4991765;28;20393;-75
2023/07/02 04:13:22;;;;;;;28.13;15.70;;;;;;;21.22;60.96;100257.91;4988316;28;20404;-77
2023/07/02 04:15:48;;;;;;;25.57;14.57;;;;;;;21.23;60.78;100256.00;4991814;28;20472;-76
2023/07/02 04:18:13;;;;;;;21.00;15.90;;;;;;;21.33;60.50;100266.94;4991070;28;20425;-76
2023/07/02 04:20:39;;;;;;;21.25;10.70;;;;;;;21.37;60.47;100268.03;4993145;28;20417;-77
2023/07/02 04:23:05;;;;;;;28.70;15.57;;;;;;;21.45;60.48;100282.97;4992901;28;20386;-79
2023/07/02 04:25:31;;;;;;;21.05;11.18;;;;;;;21.37;60.55;100276.13;4992224;28;20484;-75
2023/07/02 04:27:58;;;;;;;27.63;15.30;;;;;;;21.40;60.42;100283.72;4989837;28;20473;-76
2023/07/02 04:30:25;;;;;;;24.98;12.20;;;;;;;21.35;60.42;100276.38;4974674;28;20467;-77
2023/07/02 04:32:53;;;;;;;23.88;13.02;;;;;;;21.37;60.41;100290.44;4991447;28;20394;-76
2023/07/02 04:35:19;;;;;;;22.27;12.48;;;;;;;21.41;60.39;100296.16;4990263;28;20394;-76
2023/07/02 04:37:44;;;;;;;22.13;12.97;;;;;;;21.43;60.50;100290.47;4992566;28;20413;-76
2023/07/02 04:40:10;;;;;;;18.00;11.48;;;;;;;21.30;60.43;100280.91;5007929;28;20398;-76
2023/07/02 04:42:37;;;;;;;25.60;14.88;;;;;;;21.27;60.72;100293.00;4974270;28;20394;-76
2023/07/02 04:45:08;;;;;;;21.57;12.57;;;;;;;21.39;60.59;100292.88;4992538;28;20423;-79
2023/07/02 04:47:34;;;;;;;21.13;11.48;;;;;;;21.48;60.32;100296.81;4990842;28;20437;-76
2023/07/02 04:50:01;;;;;;;20.75;11.45;;;;;;;21.53;60.21;100299.53;4992034;28;20390;-77
2023/07/02 04:52:27;;;;;;;23.17;15.13;;;;;;;21.58;60.36;100301.47;4994880;28;20401;-76
2023/07/02 04:54:53;;;;;;;22.05;13.98;;;;;;;21.62;60.35;100313.38;4995968;28;20413;-76
2023/07/02 04:57:18;;;;;;;24.27;15.73;;;;;;;21.61;60.37;100319.88;4999408;28;20414;-76
2023/07/02 04:59:44;;;;;;;22.92;14.50;;;;;;;21.56;60.44;100317.09;4981576;28;20454;-76
2023/07/02 05:02:09;;;;;;;25.27;15.03;;;;;;;21.60;60.41;100331.72;5002758;28;20458;-76
2023/07/02 05:04:39;;;;;;;27.45;14.52;;;;;;;21.65;60.21;100328.25;5000433;28;20392;-76
2023/07/02 05:07:05;;;;;;;20.70;12.73;;;;;;;21.58;60.37;100342.75;5000265;28;20489;-76
2023/07/02 05:09:30;;;;;;;21.53;11.77;;;;;;;21.56;60.26;100344.06;5000832;28;20398;-75
2023/07/02 05:11:56;;;;;;;17.15;8.07;;;;;;;21.67;60.19;100353.09;5005857;28;20411;-77
2023/07/02 05:14:22;;;;;;;13.88;3.85;;;;;;;21.74;59.80;100346.44;5000062;28;20509;-76
2023/07/02 05:16:48;;;;;;;18.33;4.90;;;;;;;21.80;59.71;100341.09;5003756;28;20443;-76
2023/07/02 05:19:14;;;;;;;20.75;5.30;;;;;;;21.79;59.95;100342.16;4998687;28;20425;-76
2023/07/02 05:21:40;;;;;;;18.60;5.22;;;;;;;21.80;59.94;100336.50;4995882;28;20908;-75
2023/07/02 05:24:06;;;;;;;18.03;6.27;;;;;;;21.84;60.06;100343.03;4997629;28;21045;-75
2023/07/02 05:26:33;;;;;;;20.75;5.97;;;;;;;21.86;59.91;100338.19;4994806;28;20487;-77
2023/07/02 05:28:58;;;;;;;14.45;6.00;;;;;;;21.95;59.75;100344.78;4989634;28;20402;-76
2023/07/02 05:31:23;;;;;;;17.87;6.13;;;;;;;21.95;59.52;100346.66;4995139;28;20406;-77
2023/07/02 05:33:49;;;;;;;15.20;6.53;;;;;;;21.83;59.95;100346.78;4993427;28;20421;-77
2023/07/02 05:36:15;;;;;;;17.37;10.57;;;;;;;21.82;60.26;100357.84;4996818;28;20399;-77
2023/07/02 05:38:40;;;;;;;13.15;6.10;;;;;;;21.91;59.93;100356.31;4996942;28;20404;-76
2023/07/02 05:41:06;;;;;;;17.37;6.87;;;;;;;21.97;59.75;100352.63;4994052;28;20424;-77
2023/07/02 05:43:31;;;;;;;17.57;7.90;;;;;;;21.96;60.07;100346.38;4997020;28;20397;-76
2023/07/02 05:46:02;;;;;;;15.53;7.47;;;;;;;22.06;60.20;100358.38;4992252;28;20386;-76
2023/07/02 05:48:28;;;;;;;12.60;4.82;;;;;;;22.10;60.21;100357.59;4988512;28;20464;-77
2023/07/02 05:50:54;;;;;;;16.83;6.20;;;;;;;22.04;60.69;100357.78;4990124;28;20389;-76
2023/07/02 05:53:20;;;;;;;14.10;6.43;;;;;;;22.12;60.58;100360.03;4992266;28;20890;-76
2023/07/02 05:55:46;;;;;;;8.83;4.40;;;;;;;22.17;60.90;100362.78;4990733;28;20412;-76
2023/07/02 05:58:12;;;;;;;15.32;4.80;;;;;;;22.28;60.93;100369.94;4990856;28;20775;-76
2023/07/02 06:00:39;;;;;;;16.83;6.20;;;;;;;22.26;61.07;100365.84;4962749;28;20458;-76
2023/07/02 06:03:04;;;;;;;18.33;6.88;;;;;;;22.29;61.08;100355.38;4969648;28;20507;-76
2023/07/02 06:05:30;;;;;;;17.97;7.53;;;;;;;22.35;61.33;100360.81;4969438;28;20413;-76
2023/07/02 06:07:55;;;;;;;20.43;8.70;;;;;;;22.36;61.29;100363.25;4969924;28;20402;-76
2023/07/02 06:10:21;;;;;;;28.23;11.30;;;;;;;22.40;61.20;100366.25;4969312;28;20407;-76
2023/07/02 06:12:46;;;;;;;27.20;21.07;;;;;;;22.47;61.14;100370.38;4969063;28;20483;-76
2023/07/02 06:15:12;;;;;;;46.03;41.63;;;;;;;22.51;61.30;100359.88;4968972;28;20480;-76
2023/07/02 06:17:37;;;;;;;22.25;17.90;;;;;;;22.48;61.40;100360.38;4980511;28;20417;-77
2023/07/02 06:20:04;;;;;;;32.73;20.07;;;;;;;22.48;61.54;100372.00;4985302;28;20398;-76
2023/07/02 06:22:30;;;;;;;14.07;12.35;;;;;;;22.52;61.80;100375.00;4986746;28;20413;-76
2023/07/02 06:24:56;;;;;;;15.27;6.47;;;;;;;22.58;61.81;100373.16;4985940;28;20408;-76
2023/07/02 06:27:21;;;;;;;11.63;5.20;;;;;;;22.62;61.54;100375.09;4992469;28;21041;-77
2023/07/02 06:29:47;;;;;;;16.47;4.93;;;;;;;22.65;61.34;100369.19;4993442;28;20497;-77
2023/07/02 06:32:13;;;;;;;15.55;5.15;;;;;;;22.68;61.05;100371.34;4990070;28;20403;-76
2023/07/02 06:34:38;;;;;;;16.50;5.67;;;;;;;22.62;61.13;100372.38;4990011;28;20806;-76
2023/07/02 06:37:05;;;;;;;13.82;5.47;;;;;;;22.46;61.03;100365.25;4992367;28;20425;-76
2023/07/02 06:39:31;;;;;;;14.23;6.47;;;;;;;22.47;61.49;100366.84;4988456;28;20405;-76
2023/07/02 06:41:56;;;;;;;17.88;5.80;;;;;;;22.60;61.40;100365.59;4993429;28;20412;-75
2023/07/02 06:44:22;;;;;;;13.10;6.70;;;;;;;22.71;61.06;100362.72;4989513;28;20402;-77
2023/07/02 06:46:47;;;;;;;14.30;5.37;;;;;;;22.80;61.22;100368.47;4986913;28;20739;-76
2023/07/02 06:49:13;;;;;;;14.37;5.70;;;;;;;22.86;61.02;100369.31;4990588;28;20416;-77
2023/07/02 06:51:38;;;;;;;11.20;5.23;;;;;;;22.87;61.29;100370.94;4992678;28;20484;-77
2023/07/02 06:54:04;;;;;;;15.20;4.93;;;;;;;22.89;61.45;100376.91;4992497;28;20405;-78
2023/07/02 06:56:32;;;;;;;18.87;5.63;;;;;;;22.96;61.48;100376.66;4993194;28;20483;-76
2023/07/02 06:58:57;;;;;;;17.17;5.20;;;;;;;23.00;61.63;100372.38;4992116;28;20418;-76
2023/07/02 07:01:23;;;;;;;19.07;5.57;;;;;;;23.09;61.54;100362.72;4992049;28;20428;-76
2023/07/02 07:03:48;;;;;;;54.25;48.45;;;;;;;23.20;61.27;100374.41;4992671;28;20428;-76
2023/07/02 07:06:14;;;;;;;52.50;46.80;;;;;;;23.25;61.31;100369.84;4992952;28;20541;-77
2023/07/02 07:08:39;;;;;;;42.87;38.00;;;;;;;23.26;61.20;100362.53;4994173;28;20393;-77
2023/07/02 07:11:05;;;;;;;44.00;38.07;;;;;;;23.34;61.17;100361.22;4992614;28;20730;-77
2023/07/02 07:13:30;;;;;;;46.65;42.22;;;;;;;23.27;61.30;100361.47;4992046;28;20417;-76
2023/07/02 07:15:56;;;;;;;43.17;38.50;;;;;;;23.24;60.99;100361.97;4989510;28;20821;-76
2023/07/02 07:18:21;;;;;;;34.47;28.43;;;;;;;23.31;61.06;100362.56;4989437;28;20517;-76
2023/07/02 07:20:47;;;;;;;28.23;22.20;;;;;;;23.44;60.81;100363.97;4989437;28;20390;-77
2023/07/02 07:23:12;;;;;;;30.53;19.80;;;;;;;23.52;60.73;100374.28;4990869;28;20803;-76
2023/07/02 07:25:38;;;;;;;25.40;22.87;;;;;;;23.52;60.70;100363.47;4990034;28;20398;-76
2023/07/02 07:28:03;;;;;;;27.85;24.85;;;;;;;23.61;60.44;100374.59;4990774;28;20404;-76
2023/07/02 07:30:29;;;;;;;27.13;24.63;;;;;;;23.69;60.17;100371.34;4991567;28;20714;-76
2023/07/02 07:32:56;;;;;;;33.17;30.33;;;;;;;23.67;59.82;100368.91;4992496;28;20790;-76
2023/07/02 07:35:22;;;;;;;38.10;34.55;;;;;;;23.77;59.44;100373.56;4991990;28;20400;-76
2023/07/02 07:37:47;;;;;;;32.05;29.05;;;;;;;23.84;59.27;100376.03;4991318;28;20409;-76
2023/07/02 07:40:14;;;;;;;34.53;31.07;;;;;;;24.01;59.09;100376.63;4992031;28;20758;-77
2023/07/02 07:42:41;;;;;;;26.05;23.55;;;;;;;24.09;59.08;100377.97;4992618;28;20506;-77
2023/07/02 07:45:07;;;;;;;26.52;22.85;;;;;;;24.15;58.79;100376.13;4992391;28;20894;-76
2023/07/02 07:47:33;;;;;;;33.17;29.80;;;;;;;24.20;58.72;100376.94;4991174;28;20402;-76
2023/07/02 07:49:58;;;;;;;36.43;33.30;;;;;;;24.27;58.84;100378.56;4991200;28;20406;-76
2023/07/02 07:52:24;;;;;;;47.00;42.80;;;;;;;24.29;58.40;100379.09;4991065;28;20401;-76
2023/07/02 07:54:49;;;;;;;46.67;42.73;;;;;;;24.31;58.39;100383.16;4990609;28;20472;-76
2023/07/02 07:57:15;;;;;;;56.17;51.17;;;;;;;24.40;57.85;100378.03;4992373;28;20953;-76
2023/07/02 07:59:40;;;;;;;53.90;49.20;;;;;;;24.53;57.67;100377.50;4990363;28;20394;-77
2023/07/02 08:02:06;;;;;;;66.57;59.50;;;;;;;24.61;57.42;100376.97;4990821;28;20512;-77
2023/07/02 08:04:32;;;;;;;62.22;56.15;;;;;;;24.72;57.43;100383.19;4991028;28;20514;-75
2023/07/02 08:06:57;;;;;;;50.07;45.30;;;;;;;24.77;57.54;100374.22;4991521;28;20718;-76
2023/07/02 08:09:23;;;;;;;35.03;31.23;;;;;;;24.88;57.13;100385.88;4990814;28;20490;-76
2023/07/02 08:11:49;;;;;;;21.02;18.63;;;;;;;24.90;56.97;100383.69;4992106;28;20735;-76
2023/07/02 08:14:16;;;;;;;29.27;26.33;;;;;;;25.04;56.85;100382.03;4974287;28;20847;-77
2023/07/02 08:16:41;;;;;;;40.85;37.05;;;;;;;25.05;56.63;100385.56;4990074;28;20565;-77
2023/07/02 08:19:07;;;;;;;51.73;47.00;;;;;;;25.15;56.29;100378.22;4991029;28;20805;-77
2023/07/02 08:21:32;;;;;;;54.70;49.97;;;;;;;25.13;55.80;100380.38;4988027;28;20464;-77
2023/07/02 08:23:58;;;;;;;65.70;59.20;;;;;;;25.13;55.67;100369.53;4990703;28;20390;-77
2023/07/02 08:26:23;;;;;;;69.70;62.30;;;;;;;25.26;55.40;100372.78;4989662;28;20398;-77
2023/07/02 08:28:49;;;;;;;71.53;64.10;;;;;;;25.24;55.68;100373.06;4991265;28;20802;-75
2023/07/02 08:31:15;;;;;;;73.57;65.55;;;;;;;25.35;55.65;100371.97;4988791;28;20437;-76
2023/07/02 08:33:40;;;;;;;58.17;52.47;;;;;;;25.30;55.03;100369.28;4991052;28;20443;-76
2023/07/02 08:36:06;;;;;;;55.67;50.07;;;;;;;25.38;55.11;100373.31;4987346;28;20744;-76
2023/07/02 08:38:31;;;;;;;50.97;46.17;;;;;;;25.54;54.89;100376.78;4992066;28;20441;-76
2023/07/02 08:40:57;;;;;;;55.77;50.73;;;;;;;25.67;54.64;100375.34;4986889;28;20434;-77
2023/07/02 08:43:25;;;;;;;55.83;50.57;;;;;;;25.57;54.19;100370.78;4989464;28;20402;-76
2023/07/02 08:45:51;;;;;;;56.90;51.67;;;;;;;25.72;54.16;100372.59;4989846;28;20397;-76
2023/07/02 08:48:22;;;;;;;52.03;47.77;;;;;;;25.79;53.89;100372.31;4992144;28;20378;-77
2023/07/02 08:50:49;;;;;;;41.38;37.65;;;;;;;25.85;53.64;100363.84;4991696;28;20798;-77
2023/07/02 08:53:14;;;;;;;36.97;33.88;;;;;;;25.73;53.12;100361.47;4991918;28;20409;-76
2023/07/02 08:55:40;;;;;;;59.67;54.00;;;;;;;25.81;53.52;100362.78;4990524;28;20798;-76
2023/07/02 08:58:06;;;;;;;60.23;54.73;;;;;;;25.95;53.04;100376.59;4990881;28;20449;-76
2023/07/02 09:00:35;;;;;;;71.77;64.33;;;;;;;25.90;53.35;100360.28;4991641;28;20370;-77
2023/07/02 09:03:15;;;;;;;61.47;55.72;;;;;;;26.05;52.89;100367.53;4991736;28;20759;-77
2023/07/02 09:05:53;;;;;;;67.10;60.13;;;;;;;25.91;52.40;100375.47;4992220;28;20401;-77
2023/07/02 09:08:25;;;;;;;51.80;46.30;;;;;;;25.88;52.97;100365.19;4991723;28;20426;-76
2023/07/02 09:10:53;;;;;;;45.10;41.13;;;;;;;26.15;52.70;100367.50;4990215;28;20429;-76
2023/07/02 09:13:18;;;;;;;40.83;36.53;;;;;;;26.09;52.48;100365.88;4990005;28;20412;-76
2023/07/02 09:15:43;;;;;;;36.30;32.70;;;;;;;26.18;52.22;100372.38;4992093;28;20386;-76
2023/07/02 09:18:20;;;;;;;39.47;36.07;;;;;;;26.31;52.35;100358.13;4991237;28;20408;-76
2023/07/02 09:20:46;;;;;;;23.77;21.67;;;;;;;26.56;52.30;100361.72;4991776;28;20393;-75
2023/07/02 09:23:12;;;;;;;30.08;26.95;;;;;;;26.76;52.03;100363.47;4974277;28;20440;-76
2023/07/02 09:25:38;;;;;;;27.40;23.80;;;;;;;26.89;51.79;100351.91;4991855;28;20958;-76
2023/07/02 09:28:33;;;;;;;30.52;27.63;;;;;;;26.73;51.21;100369.47;4990609;28;20484;-76
2023/07/02 09:30:59;;;;;;;66.40;59.65;;;;;;;26.82;51.55;100354.16;4934495;28;20407;-76
2023/07/02 09:33:26;;;;;;;72.32;64.82;;;;;;;27.20;51.51;100359.72;4967646;28;20791;-76
2023/07/02 09:35:51;;;;;;;65.10;58.90;;;;;;;27.51;51.80;100353.13;4966581;28;20802;-76
2023/07/02 09:38:21;;;;;;;61.15;55.67;;;;;;;27.67;51.46;100340.91;4968377;28;20411;-76
2023/07/02 09:40:49;;;;;;;55.13;50.00;;;;;;;27.70;51.20;100345.78;4966670;28;20419;-76
2023/07/02 09:43:16;;;;;;;63.47;57.65;;;;;;;27.87;50.84;100342.53;4970622;28;20486;-76
2023/07/02 09:45:47;;;;;;;33.22;29.90;;;;;;;27.90;51.06;100338.44;4968307;28;20403;-76
2023/07/02 09:48:17;;;;;;;51.03;46.30;;;;;;;27.99;51.24;100342.94;4976067;28;21289;-76
2023/07/02 09:50:45;;;;;;;55.40;50.20;;;;;;;28.12;50.96;100335.91;4988914;28;21122;-76
2023/07/02 09:53:11;;;;;;;64.72;58.53;;;;;;;28.38;50.63;100333.59;4989845;28;20753;-76
2023/07/02 09:55:39;;;;;;;82.85;74.30;;;;;;;28.45;50.21;100343.28;4992628;28;20470;-76
2023/07/02 09:58:05;;;;;;;79.13;71.03;;;;;;;28.33;49.40;100335.59;4994520;28;20904;-76
2023/07/02 10:00:31;;;;;;;87.38;78.03;;;;;;;28.27;48.63;100337.59;5000018;28;20749;-76
2023/07/02 10:02:57;;;;;;;92.70;80.50;;;;;;;28.44;49.04;100317.94;4996999;28;20427;-77
2023/07/02 10:05:31;;;;;;;86.68;77.53;;;;;;;28.59;47.92;100331.34;4999289;28;20412;-76
2023/07/02 10:08:16;;;;;;;90.22;78.97;;;;;;;28.67;48.51;100321.66;4993385;28;20394;-76
2023/07/02 10:10:42;;;;;;;84.03;75.32;;;;;;;28.52;49.00;100324.63;4989136;28;20411;-76
2023/07/02 10:13:07;;;;;;;81.43;73.13;;;;;;;28.58;49.16;100327.00;4992697;28;20402;-77
2023/07/02 10:15:37;;;;;;;79.37;71.37;;;;;;;28.21;49.26;100319.69;4995823;28;20459;-77
2023/07/02 10:18:03;;;;;;;79.80;72.00;;;;;;;28.17;49.27;100313.22;4990660;28;20501;-76
2023/07/02 10:20:33;;;;;;;83.63;74.93;;;;;;;28.62;48.67;100318.22;4987336;28;20444;-77
2023/07/02 10:23:01;;;;;;;78.93;71.28;;;;;;;29.01;48.81;100311.47;4987706;28;20406;-77
2023/07/02 10:25:29;;;;;;;80.93;72.47;;;;;;;29.14;48.08;100305.19;4990579;28;20421;-78
2023/07/02 10:27:55;;;;;;;82.30;73.18;;;;;;;29.03;46.82;100312.78;4994038;28;20405;-77
2023/07/02 10:30:31;;;;;;;77.35;69.07;;;;;;;29.20;46.91;100300.47;4994305;28;21247;-76
2023/07/02 10:33:13;;;;;;;96.03;82.45;;;;;;;29.17;45.62;100302.69;4994826;28;20413;-77
2023/07/02 10:35:42;;;;;;;84.32;75.05;;;;;;;29.13;45.95;100296.19;4996497;28;20462;-76
2023/07/02 10:38:14;;;;;;;88.03;76.82;;;;;;;29.24;45.90;100305.00;4994920;28;20444;-76
2023/07/02 10:40:42;;;;;;;106.35;86.18;;;;;;;29.50;45.23;100302.53;5005034;28;20412;-76
2023/07/02 10:43:07;;;;;;;96.68;82.15;;;;;;;29.72;45.01;100295.47;4998169;28;20405;-75
2023/07/02 10:45:34;;;;;;;70.67;63.33;;;;;;;29.39;44.89;100287.50;4992720;28;20416;-76
2023/07/02 10:48:04;;;;;;;71.30;64.07;;;;;;;29.36;44.93;100286.16;4988146;28;20397;-77
2023/07/02 10:50:32;;;;;;;66.50;59.63;;;;;;;29.29;43.65;100282.25;4993884;28;20401;-76
2023/07/02 10:52:57;;;;;;;62.07;56.33;;;;;;;28.94;43.55;100273.69;4989411;28;20398;-77
2023/07/02 10:55:24;;;;;;;65.65;59.83;;;;;;;29.20;43.69;100276.69;4990583;28;20488;-76
2023/07/02 10:58:01;;;;;;;65.07;59.03;;;;;;;29.33;43.77;100277.78;4992071;28;20779;-77
2023/07/02 11:00:27;;;;;;;67.13;59.85;;;;;;;29.39;43.32;100281.19;4990362;28;20443;-76
2023/07/02 11:02:52;;;;;;;60.10;53.93;;;;;;;29.33;43.18;100269.59;4991485;28;20417;-78
2023/07/02 11:05:18;;;;;;;58.73;53.50;;;;;;;29.51;42.17;100267.81;4992204;28;20431;-76
2023/07/02 11:07:44;;;;;;;58.22;53.15;;;;;;;29.53;42.18;100262.84;4991112;28;20421;-76
2023/07/02 11:10:11;;;;;;;56.90;51.67;;;;;;;29.60;43.11;100271.44;4989311;28;20448;-76